createdAt,value
2018-09-10T00:00:33.103Z,16.33
2018-09-10T00:03:04.229Z,15.80
2018-09-10T00:05:35.098Z,15.33
2018-09-10T00:08:06.122Z,15.90
2018-09-10T00:10:38.507Z,16.50
2018-09-10T00:13:10.125Z,15.00
2018-09-10T00:15:42.170Z,15.23
2018-09-10T00:18:13.684Z,14.23
2018-09-10T00:20:44.618Z,15.23
2018-09-10T00:23:15.009Z,15.47
2018-09-10T00:25:46.237Z,14.57
2018-09-10T00:28:17.372Z,15.30
2018-09-10T00:30:47.799Z,14.70
2018-09-10T00:33:18.301Z,15.50
2018-09-10T00:35:48.781Z,16.37
2018-09-10T00:38:20.501Z,15.97
2018-09-10T00:40:51.517Z,15.43
2018-09-10T00:43:23.389Z,15.87
2018-09-10T00:45:53.968Z,16.27
2018-09-10T00:48:25.108Z,16.73
2018-09-10T00:50:55.798Z,18.33
2018-09-10T00:53:26.306Z,16.50
2018-09-10T00:55:56.879Z,15.77
2018-09-10T00:58:27.378Z,16.30
2018-09-10T01:00:57.320Z,15.40
2018-09-10T01:03:27.700Z,17.80
2018-09-10T01:05:58.193Z,15.60
2018-09-10T01:08:28.299Z,17.20
2018-09-10T01:10:58.358Z,15.87
2018-09-10T01:13:28.773Z,17.20
2018-09-10T01:15:59.843Z,16.20
2018-09-10T01:18:29.759Z,16.80
2018-09-10T01:21:00.150Z,16.53
2018-09-10T01:23:30.240Z,16.97
2018-09-10T01:26:00.374Z,15.43
2018-09-10T01:28:30.576Z,16.70
2018-09-10T01:31:01.035Z,16.50
2018-09-10T01:33:35.909Z,16.50
2018-09-10T01:36:05.963Z,16.10
2018-09-10T01:38:36.404Z,15.70
2018-09-10T01:41:06.840Z,16.10
2018-09-10T01:43:37.280Z,15.47
2018-09-10T01:46:07.286Z,15.50
2018-09-10T01:48:37.567Z,16.10
2018-09-10T01:51:08.583Z,16.90
2018-09-10T01:53:39.038Z,16.23
2018-09-10T01:56:10.025Z,16.37
2018-09-10T01:58:41.959Z,17.13
2018-09-10T02:01:12.063Z,16.70
2018-09-10T02:03:42.841Z,16.57
2018-09-10T02:06:12.693Z,15.10
2018-09-10T02:08:43.882Z,15.80
2018-09-10T02:11:14.975Z,16.30
2018-09-10T02:13:45.399Z,14.80
2018-09-10T02:16:16.155Z,17.30
2018-09-10T02:18:47.579Z,16.53
2018-09-10T02:21:17.540Z,17.03
2018-09-10T02:23:47.600Z,17.53
2018-09-10T02:26:17.981Z,16.67
2018-09-10T02:28:49.052Z,16.83
2018-09-10T02:31:19.360Z,16.90
2018-09-10T02:33:49.377Z,17.13
2018-09-10T02:36:19.580Z,16.50
2018-09-10T02:38:51.053Z,17.57
2018-09-10T02:41:21.302Z,19.80
2018-09-10T02:43:51.820Z,20.97
2018-09-10T02:46:22.216Z,33.60
2018-09-10T02:48:53.289Z,29.50
2018-09-10T02:51:23.613Z,29.87
2018-09-10T02:53:53.813Z,29.00
2018-09-10T02:56:24.334Z,32.50
2018-09-10T02:58:55.419Z,37.37
2018-09-10T03:01:26.270Z,34.07
2018-09-10T03:03:56.545Z,39.93
2018-09-10T03:06:26.894Z,36.77
2018-09-10T03:08:57.335Z,35.03
2018-09-10T03:11:27.308Z,38.30
2018-09-10T03:13:57.129Z,37.00
2018-09-10T03:16:27.439Z,36.50
2018-09-10T03:18:57.747Z,33.10
2018-09-10T03:21:28.039Z,34.43
2018-09-10T03:23:58.549Z,30.03
2018-09-10T03:26:29.447Z,35.20
2018-09-10T03:29:00.281Z,33.10
2018-09-10T03:31:31.495Z,30.83
2018-09-10T03:34:02.255Z,27.63
2018-09-10T03:36:33.083Z,22.07
2018-09-10T03:39:07.371Z,27.53
2018-09-10T03:41:39.214Z,24.67
2018-09-10T03:44:10.146Z,23.50
2018-09-10T03:46:40.168Z,23.40
2018-09-10T03:49:10.971Z,23.27
2018-09-10T03:51:41.825Z,21.33
2018-09-10T03:54:12.169Z,21.60
2018-09-10T03:56:43.028Z,21.73
2018-09-10T03:59:13.486Z,22.60
2018-09-10T04:01:45.079Z,22.60
2018-09-10T04:04:16.148Z,22.67
2018-09-10T04:06:47.551Z,20.33
2018-09-10T04:09:18.825Z,21.03
2018-09-10T04:11:49.838Z,20.13
2018-09-10T04:14:21.346Z,20.30
2018-09-10T04:16:51.385Z,19.50
2018-09-10T04:19:21.550Z,20.53
2018-09-10T04:21:51.651Z,19.77
2018-09-10T04:24:21.704Z,21.63
2018-09-10T04:26:52.065Z,22.50
2018-09-10T04:29:22.226Z,18.23
2018-09-10T04:31:53.332Z,18.97
2018-09-10T04:34:24.095Z,18.70
2018-09-10T04:36:56.147Z,19.53
2018-09-10T04:39:27.342Z,20.00
2018-09-10T04:41:58.308Z,18.47
2018-09-10T04:44:29.506Z,20.57
2018-09-10T04:47:00.169Z,20.20
2018-09-10T04:49:30.748Z,18.90
2018-09-10T04:52:01.189Z,20.47
2018-09-10T04:54:32.468Z,20.50
2018-09-10T04:57:03.018Z,19.60
2018-09-10T04:59:33.741Z,20.97
2018-09-10T05:02:04.800Z,20.33
2018-09-10T05:04:35.541Z,18.70
2018-09-10T05:07:05.623Z,20.00
2018-09-10T05:09:36.619Z,19.90
2018-09-10T05:12:07.555Z,20.20
2018-09-10T05:14:38.311Z,20.60
2018-09-10T05:17:08.885Z,21.50
2018-09-10T05:19:39.768Z,19.87
2018-09-10T05:22:11.335Z,21.10
2018-09-10T05:24:42.711Z,22.90
2018-09-10T05:27:13.878Z,21.63
2018-09-10T05:29:46.111Z,21.63
2018-09-10T05:32:18.662Z,20.13
2018-09-10T05:34:51.974Z,19.13
2018-09-10T05:37:29.151Z,19.37
2018-09-10T05:40:05.167Z,21.67
2018-09-10T05:42:39.114Z,21.30
2018-09-10T05:45:13.805Z,21.87
2018-09-10T05:47:46.980Z,20.87
2018-09-10T05:50:17.912Z,20.77
2018-09-10T05:52:49.352Z,25.00
2018-09-10T05:55:19.589Z,21.13
2018-09-10T05:57:50.519Z,22.03
2018-09-10T06:00:21.803Z,20.60
2018-09-10T06:02:52.863Z,21.70
2018-09-10T06:05:24.157Z,23.17
2018-09-10T06:07:55.240Z,20.50
2018-09-10T06:10:26.775Z,22.10
2018-09-10T06:12:57.829Z,22.83
2018-09-10T06:15:28.719Z,21.40
2018-09-10T06:18:00.043Z,23.10
2018-09-10T06:20:31.155Z,22.03
2018-09-10T06:23:01.875Z,23.93
2018-09-10T06:25:33.271Z,23.97
2018-09-10T06:28:04.640Z,23.73
2018-09-10T06:30:35.640Z,22.80
2018-09-10T06:33:06.867Z,25.27
2018-09-10T06:35:37.632Z,23.70
2018-09-10T06:38:08.297Z,25.87
2018-09-10T06:40:39.590Z,29.60
2018-09-10T06:43:10.145Z,28.63
2018-09-10T06:45:40.722Z,31.10
2018-09-10T06:48:10.967Z,25.73
2018-09-10T06:50:41.416Z,26.20
2018-09-10T06:53:12.847Z,25.30
2018-09-10T06:55:43.730Z,25.40
2018-09-10T06:58:14.485Z,24.03
2018-09-10T07:00:45.305Z,26.07
2018-09-10T07:06:03.603Z,23.47
2018-09-10T07:08:35.549Z,22.70
2018-09-10T07:11:14.811Z,24.53
2018-09-10T07:16:57.564Z,24.00
2018-09-10T07:19:33.825Z,22.73
2018-09-10T07:22:12.519Z,23.53
2018-09-10T07:43:25.423Z,22.80
2018-09-10T07:56:03.639Z,18.97
2018-09-10T07:58:49.761Z,18.80
2018-09-10T08:01:27.103Z,19.20
2018-09-10T08:07:15.727Z,17.27
2018-09-10T08:09:47.151Z,19.40
2018-09-10T08:12:18.763Z,16.87
2018-09-10T08:14:49.643Z,16.77
2018-09-10T08:17:20.946Z,18.40
2018-09-10T08:19:52.145Z,15.23
2018-09-10T08:22:23.523Z,16.67
2018-09-10T08:24:55.651Z,16.50
2018-09-10T08:27:25.994Z,15.35
2018-09-10T08:29:58.844Z,15.20
2018-09-10T08:32:28.777Z,15.10
2018-09-10T08:34:58.664Z,16.35
2018-09-10T08:37:29.824Z,14.40
2018-09-10T08:40:00.673Z,14.50
2018-09-10T08:42:31.711Z,14.13
2018-09-10T08:45:02.570Z,13.15
2018-09-10T08:47:34.724Z,13.40
2018-09-10T08:50:07.746Z,14.05
2018-09-10T08:52:39.087Z,13.65
2018-09-10T08:55:10.266Z,14.35
2018-09-10T08:57:40.833Z,14.65
2018-09-10T09:00:12.092Z,14.93
2018-09-10T09:02:42.472Z,15.30
2018-09-10T09:05:13.848Z,13.18
2018-09-10T09:07:44.791Z,14.78
2018-09-10T09:10:15.952Z,14.43
2018-09-10T09:12:47.337Z,14.78
2018-09-10T09:15:18.921Z,15.88
2018-09-10T09:17:50.217Z,14.73
2018-09-10T09:20:21.083Z,14.25
2018-09-10T09:22:52.669Z,14.60
2018-09-10T09:25:24.015Z,13.03
2018-09-10T09:27:55.667Z,13.50
2018-09-10T09:30:26.711Z,13.53
2018-09-10T09:32:57.673Z,12.90
2018-09-10T09:35:33.139Z,13.20
2018-09-10T09:38:09.121Z,12.28
2018-09-10T09:40:45.251Z,12.65
2018-09-10T09:43:21.650Z,12.78
2018-09-10T09:45:57.778Z,11.78
2018-09-10T09:48:28.945Z,13.50
2018-09-10T09:51:00.442Z,14.03
2018-09-10T09:53:31.254Z,10.68
2018-09-10T09:56:02.854Z,11.50
2018-09-10T09:58:33.284Z,10.82
2018-09-10T10:01:08.951Z,10.70
2018-09-10T10:03:44.992Z,10.68
2018-09-10T10:06:15.202Z,10.10
2018-09-10T10:08:46.090Z,11.60
2018-09-10T10:11:16.419Z,12.78
2018-09-10T10:13:46.909Z,13.18
2018-09-10T10:16:17.727Z,12.45
2018-09-10T10:18:48.473Z,12.60
2018-09-10T10:21:18.868Z,13.25
2018-09-10T10:23:49.392Z,13.32
2018-09-10T10:26:20.312Z,12.47
2018-09-10T10:28:51.194Z,12.10
2018-09-10T10:31:21.939Z,12.25
2018-09-10T10:33:57.052Z,12.55
2018-09-10T10:36:28.196Z,14.30
2018-09-10T10:38:58.846Z,11.90
2018-09-10T10:41:29.370Z,11.12
2018-09-10T10:44:00.410Z,12.45
2018-09-10T10:46:30.844Z,10.72
2018-09-10T10:49:00.592Z,11.65
2018-09-10T10:51:30.428Z,11.65
2018-09-10T10:54:01.090Z,13.53
2018-09-10T10:56:32.052Z,11.33
2018-09-10T10:59:02.437Z,10.28
2018-09-10T11:01:33.835Z,11.20
2018-09-10T11:04:05.009Z,10.48
2018-09-10T11:06:34.956Z,10.45
2018-09-10T11:09:06.147Z,11.63
2018-09-10T11:11:36.674Z,10.88
2018-09-10T11:14:07.325Z,9.80
2018-09-10T11:16:37.874Z,10.50
2018-09-10T11:19:08.782Z,9.73
2018-09-10T11:21:38.920Z,9.78
2018-09-10T11:24:13.531Z,10.25
2018-09-10T11:26:44.466Z,9.70
2018-09-10T11:29:15.079Z,9.48
2018-09-10T11:31:53.310Z,9.50
2018-09-10T11:34:24.894Z,10.32
2018-09-10T11:36:56.792Z,10.82
2018-09-10T11:39:27.506Z,10.13
2018-09-10T11:41:58.731Z,10.08
2018-09-10T11:44:29.626Z,9.35
2018-09-10T11:47:01.113Z,10.08
2018-09-10T11:49:32.504Z,10.40
2018-09-10T11:52:03.539Z,10.10
2018-09-10T11:54:34.112Z,10.70
2018-09-10T11:57:05.354Z,9.73
2018-09-10T11:59:37.742Z,9.10
2018-09-10T12:02:10.098Z,9.63
2018-09-10T12:04:41.919Z,9.98
2018-09-10T12:07:13.916Z,10.20
2018-09-10T12:09:45.280Z,9.40
2018-09-10T12:12:17.064Z,9.70
2018-09-10T12:14:47.860Z,10.05
2018-09-10T12:17:18.757Z,9.85
2018-09-10T12:19:49.722Z,9.85
2018-09-10T12:22:19.919Z,9.88
2018-09-10T12:24:50.693Z,10.03
2018-09-10T12:27:22.071Z,10.23
2018-09-10T12:29:52.713Z,10.85
2018-09-10T12:32:23.167Z,10.70
2018-09-10T12:34:53.647Z,11.15
2018-09-10T12:37:24.686Z,10.50
2018-09-10T12:39:55.329Z,9.70
2018-09-10T12:42:26.071Z,9.45
2018-09-10T12:44:56.743Z,9.98
2018-09-10T12:47:27.459Z,10.82
2018-09-10T12:49:58.096Z,9.28
2018-09-10T12:52:28.360Z,9.43
2018-09-10T12:54:59.575Z,9.33
2018-09-10T12:57:30.517Z,10.10
2018-09-10T13:00:01.713Z,8.63
2018-09-10T13:02:32.313Z,10.00
2018-09-10T13:05:03.290Z,9.03
2018-09-10T13:07:34.351Z,9.38
2018-09-10T13:10:05.024Z,9.20
2018-09-10T13:12:35.255Z,9.80
2018-09-10T13:15:06.149Z,10.30
2018-09-10T13:17:37.339Z,11.10
2018-09-10T13:20:07.733Z,10.33
2018-09-10T13:22:39.713Z,10.50
2018-09-10T13:25:10.833Z,10.67
2018-09-10T13:27:41.650Z,9.30
2018-09-10T13:30:12.346Z,11.60
2018-09-10T13:32:42.530Z,10.70
2018-09-10T13:35:13.250Z,10.47
2018-09-10T13:37:43.410Z,11.17
2018-09-10T13:40:14.703Z,10.80
2018-09-10T13:42:46.654Z,13.00
2018-09-10T13:45:17.163Z,12.07
2018-09-10T13:47:47.173Z,13.23
2018-09-10T13:50:17.730Z,10.90
2018-09-10T13:52:48.232Z,10.77
2018-09-10T13:55:19.115Z,10.80
2018-09-10T13:57:50.444Z,9.80
2018-09-10T14:00:21.354Z,10.80
2018-09-10T14:02:51.940Z,10.30
2018-09-10T14:05:22.481Z,10.87
2018-09-10T14:07:52.842Z,11.50
2018-09-10T14:10:23.047Z,11.77
2018-09-10T14:12:54.000Z,11.43
2018-09-10T14:15:24.684Z,11.47
2018-09-10T14:17:55.589Z,11.73
2018-09-10T14:20:27.102Z,11.50
2018-09-10T14:22:58.181Z,11.33
2018-09-10T14:25:29.352Z,11.33
2018-09-10T14:27:59.640Z,11.20
2018-09-10T14:30:30.620Z,10.93
2018-09-10T14:33:01.408Z,10.40
2018-09-10T14:35:31.744Z,11.03
2018-09-10T14:38:02.930Z,10.80
2018-09-10T14:40:33.694Z,11.20
2018-09-10T14:43:04.939Z,10.53
2018-09-10T14:45:36.096Z,10.77
2018-09-10T14:48:07.178Z,10.30
2018-09-10T14:50:37.834Z,11.10
2018-09-10T14:53:08.739Z,10.83
2018-09-10T14:55:38.934Z,9.70
2018-09-10T14:58:10.033Z,32.93
2018-09-10T15:00:40.371Z,11.43
2018-09-10T15:03:11.396Z,12.20
2018-09-10T15:05:42.449Z,10.03
2018-09-10T15:08:13.034Z,10.77
2018-09-10T15:10:43.059Z,10.10
2018-09-10T15:13:13.480Z,10.37
2018-09-10T15:15:44.472Z,10.90
2018-09-10T15:18:16.111Z,15.43
2018-09-10T15:20:47.401Z,11.20
2018-09-10T15:23:18.433Z,10.80
2018-09-10T15:25:48.993Z,10.40
2018-09-10T15:28:19.913Z,11.40
2018-09-10T15:30:51.270Z,10.70
2018-09-10T15:33:22.896Z,10.70
2018-09-10T15:35:53.705Z,10.50
2018-09-10T15:38:25.478Z,10.00
2018-09-10T15:40:56.445Z,12.90
2018-09-10T15:43:27.928Z,11.90
2018-09-10T15:45:58.231Z,10.80
2018-09-10T15:48:29.407Z,10.63
2018-09-10T15:50:59.962Z,10.63
2018-09-10T15:53:30.737Z,10.70
2018-09-10T15:56:01.266Z,11.53
2018-09-10T15:58:32.722Z,10.93
2018-09-10T16:01:03.424Z,10.17
2018-09-10T16:03:34.108Z,10.77
2018-09-10T16:06:04.727Z,11.27
2018-09-10T16:08:35.153Z,9.93
2018-09-10T16:11:05.996Z,9.97
2018-09-10T16:13:36.759Z,10.90
2018-09-10T16:16:08.062Z,10.20
2018-09-10T16:18:39.545Z,9.77
2018-09-10T16:21:10.837Z,9.80
2018-09-10T16:23:41.626Z,10.10
2018-09-10T16:26:12.352Z,10.67
2018-09-10T16:28:42.962Z,10.00
2018-09-10T16:31:13.959Z,10.60
2018-09-10T16:33:44.795Z,10.90
2018-09-10T16:36:15.872Z,10.40
2018-09-10T16:38:46.826Z,10.13
2018-09-10T16:41:18.138Z,9.97
2018-09-10T16:43:48.544Z,10.37
2018-09-10T16:46:19.341Z,11.30
2018-09-10T16:48:50.157Z,12.40
2018-09-10T16:51:20.633Z,13.13
2018-09-10T16:53:51.066Z,12.93
2018-09-10T16:56:23.468Z,11.70
2018-09-10T16:58:53.554Z,12.00
2018-09-10T17:01:24.030Z,11.70
2018-09-10T17:03:54.671Z,11.20
2018-09-10T17:06:29.460Z,9.90
2018-09-10T17:09:08.816Z,10.63
2018-09-10T17:14:24.236Z,12.20
2018-09-10T17:16:55.741Z,11.50
2018-09-10T17:19:27.142Z,13.20
2018-09-10T17:21:58.265Z,11.30
2018-09-10T17:24:28.887Z,11.63
2018-09-10T17:27:00.336Z,10.80
2018-09-10T17:29:31.118Z,11.73
2018-09-10T17:32:01.757Z,11.70
2018-09-10T17:34:32.091Z,15.97
2018-09-10T17:37:02.634Z,14.80
2018-09-10T17:39:34.087Z,11.20
2018-09-10T17:42:05.052Z,11.30
2018-09-10T17:44:35.712Z,13.33
2018-09-10T17:47:06.761Z,11.60
2018-09-10T17:49:37.210Z,11.43
2018-09-10T17:52:07.989Z,11.93
2018-09-10T17:54:38.809Z,12.13
2018-09-10T17:57:09.450Z,12.17
2018-09-10T17:59:41.209Z,13.37
2018-09-10T18:02:11.470Z,15.83
2018-09-10T18:04:42.049Z,20.13
2018-09-10T18:07:12.349Z,19.03
2018-09-10T18:09:42.909Z,22.83
2018-09-10T18:12:13.233Z,20.57
2018-09-10T18:14:44.002Z,23.23
2018-09-10T18:17:14.322Z,23.50
2018-09-10T18:19:45.123Z,23.43
2018-09-10T18:22:15.743Z,21.43
2018-09-10T18:24:59.208Z,21.50
2018-09-10T18:27:38.924Z,21.53
2018-09-10T18:30:36.583Z,21.20
2018-09-10T18:33:41.383Z,22.23
2018-09-10T18:36:14.022Z,22.07
2018-09-10T18:39:07.263Z,20.80
2018-09-10T18:41:54.423Z,20.60
2018-09-10T18:44:37.090Z,19.73
2018-09-10T18:47:19.890Z,20.77
2018-09-10T18:50:15.610Z,18.83
2018-09-10T18:55:53.049Z,21.57
2018-09-10T18:58:34.769Z,15.53
2018-09-10T19:01:21.127Z,17.27
2018-09-10T19:03:56.711Z,17.40
2018-09-10T19:06:36.471Z,17.43
2018-09-10T19:09:16.869Z,15.53
2018-09-10T19:12:04.089Z,15.93
2018-09-10T19:14:42.528Z,16.60
2018-09-10T19:17:14.068Z,15.73
2018-09-10T19:19:51.209Z,15.60
2018-09-10T19:22:22.409Z,13.70
2018-09-10T19:25:10.511Z,13.93
2018-09-10T19:27:59.289Z,13.30
2018-09-10T19:31:02.352Z,15.67
2018-09-10T19:33:57.769Z,15.57
2018-09-10T19:36:56.390Z,14.70
2018-09-10T19:39:27.811Z,15.27
2018-09-10T19:41:58.409Z,14.87
2018-09-10T19:44:29.172Z,14.80
2018-09-10T19:47:00.209Z,14.20
2018-09-10T19:49:34.310Z,14.60
2018-09-10T19:52:06.750Z,13.30
2018-09-10T19:54:39.943Z,13.40
2018-09-10T19:57:11.526Z,13.60
2018-09-10T19:59:42.457Z,14.20
2018-09-10T20:02:14.440Z,12.70
2018-09-10T20:04:45.304Z,13.77
2018-09-10T20:07:16.492Z,13.70
2018-09-10T20:09:47.020Z,13.30
2018-09-10T20:12:17.867Z,14.60
2018-09-10T20:14:48.803Z,13.60
2018-09-10T20:17:19.622Z,12.20
2018-09-10T20:19:50.205Z,12.83
2018-09-10T20:22:21.626Z,12.83
2018-09-10T20:24:52.494Z,13.20
2018-09-10T20:27:23.472Z,13.40
2018-09-10T20:29:54.605Z,14.13
2018-09-10T20:32:25.364Z,13.43
2018-09-10T20:34:55.881Z,14.70
2018-09-10T20:37:27.622Z,15.20
2018-09-10T20:39:59.042Z,14.50
2018-09-10T20:42:29.260Z,14.50
2018-09-10T20:45:01.485Z,14.30
2018-09-10T20:47:32.875Z,14.30
2018-09-10T20:50:03.652Z,13.97
2018-09-10T20:52:34.658Z,13.87
2018-09-10T20:55:04.608Z,13.80
2018-09-10T20:57:34.850Z,14.20
2018-09-10T21:00:05.145Z,14.70
2018-09-10T21:02:36.041Z,14.13
2018-09-10T21:05:06.775Z,13.07
2018-09-10T21:07:37.124Z,13.93
2018-09-10T21:10:07.663Z,12.60
2018-09-10T21:12:37.883Z,14.13
2018-09-10T21:15:08.506Z,11.60
2018-09-10T21:17:38.925Z,12.20
2018-09-10T21:20:09.705Z,13.07
2018-09-10T21:22:39.982Z,13.27
2018-09-10T21:25:10.741Z,12.80
2018-09-10T21:27:41.882Z,14.40
2018-09-10T21:30:12.157Z,13.97
2018-09-10T21:32:42.925Z,14.70
2018-09-10T21:35:13.842Z,14.30
2018-09-10T21:37:44.390Z,15.00
2018-09-10T21:40:14.838Z,13.87
2018-09-10T21:42:45.837Z,13.70
2018-09-10T21:45:16.283Z,12.40
2018-09-10T21:47:47.737Z,14.00
2018-09-10T21:50:18.257Z,14.57
2018-09-10T21:52:48.541Z,14.27
2018-09-10T21:55:18.563Z,14.70
2018-09-10T21:57:50.237Z,15.10
2018-09-10T22:00:21.752Z,14.30
2018-09-10T22:02:52.602Z,14.13
2018-09-10T22:05:23.945Z,15.20
2018-09-10T22:07:55.344Z,14.20
2018-09-10T22:10:26.164Z,14.20
2018-09-10T22:12:57.458Z,14.13
2018-09-10T22:15:27.837Z,14.50
2018-09-10T22:17:59.532Z,13.50
2018-09-10T22:20:30.993Z,14.50
2018-09-10T22:23:02.271Z,14.80
2018-09-10T22:25:33.300Z,14.07
2018-09-10T22:28:05.192Z,14.17
2018-09-10T22:30:36.284Z,13.03
2018-09-10T22:33:07.338Z,14.47
2018-09-10T22:35:38.142Z,14.10
2018-09-10T22:38:09.291Z,13.47
2018-09-10T22:40:40.397Z,13.37
2018-09-10T22:43:11.121Z,14.13
2018-09-10T22:45:42.477Z,14.63
2018-09-10T22:48:12.873Z,14.30
2018-09-10T22:50:43.814Z,14.20
2018-09-10T22:53:14.383Z,14.47
2018-09-10T22:55:45.319Z,16.57
2018-09-10T22:58:16.416Z,15.40
2018-09-10T23:00:46.990Z,16.00
2018-09-10T23:03:18.185Z,15.57
2018-09-10T23:05:49.150Z,15.20
2018-09-10T23:08:19.603Z,14.30
2018-09-10T23:10:49.529Z,15.60
2018-09-10T23:13:20.128Z,14.30
2018-09-10T23:15:52.137Z,17.03
2018-09-10T23:18:22.437Z,15.13
2018-09-10T23:20:53.862Z,15.10
2018-09-10T23:23:24.211Z,15.07
2018-09-10T23:25:55.550Z,14.77
2018-09-10T23:28:26.245Z,14.83
2018-09-10T23:30:56.670Z,14.87
2018-09-10T23:33:27.374Z,13.50
2018-09-10T23:35:57.569Z,15.40
2018-09-10T23:38:28.719Z,14.73
2018-09-10T23:40:58.965Z,14.80
2018-09-10T23:43:29.412Z,14.20
2018-09-10T23:46:00.014Z,13.33
2018-09-10T23:48:30.790Z,13.53
2018-09-10T23:51:01.367Z,13.50
2018-09-10T23:53:31.983Z,14.50
2018-09-10T23:56:02.690Z,14.67
2018-09-10T23:58:32.712Z,14.27
